Time;durP1;ratioP1;P1;durP2;ratioP2;P2;SDS_P1;SDS_P2;PMS_P1;PMS_P2;Temp;Humidity;BMP_temperature;BMP_pressure;BME280_temperature;BME280_humidity;BME280_pressure;Samples;Min_cycle;Max_cycle;Signal;HPM_P1;HPM_P2
2022/03/03 00:03:59;;;;;;;8.85;7.60;;;;;;;-1.86;100.00;98830.88;10365747;28;20040;-77
2022/03/03 00:09:01;;;;;;;11.73;7.47;;;;;;;-1.97;100.00;98828.75;10369258;28;20853;-77
2022/03/03 00:14:05;;;;;;;9.30;7.72;;;;;;;-1.99;100.00;98820.06;10377579;28;20042;-77
2022/03/03 00:19:09;;;;;;;8.50;6.68;;;;;;;-2.04;100.00;98816.75;10378408;28;20558;-76
2022/03/03 00:24:12;;;;;;;9.25;6.63;;;;;;;-2.05;100.00;98812.41;10380382;28;20498;-77
2022/03/03 00:29:15;;;;;;;8.20;6.90;;;;;;;-2.08;100.00;98815.22;10382336;28;20049;-77
2022/03/03 00:34:19;;;;;;;9.77;6.43;;;;;;;-2.11;100.00;98805.63;10386914;28;20046;-78
2022/03/03 00:39:22;;;;;;;9.82;6.80;;;;;;;-2.15;100.00;98819.91;10385997;28;20050;-76
2022/03/03 00:44:25;;;;;;;8.80;7.05;;;;;;;-2.18;100.00;98823.56;10367717;28;20120;-76
2022/03/03 00:49:29;;;;;;;8.65;7.00;;;;;;;-2.24;100.00;98820.34;10372068;28;20046;-77
2022/03/03 00:54:32;;;;;;;10.00;7.35;;;;;;;-2.27;100.00;98834.53;10374392;28;20053;-76
2022/03/03 00:59:35;;;;;;;10.30;7.13;;;;;;;-2.31;100.00;98822.41;10370338;28;20042;-76
2022/03/03 01:04:40;;;;;;;11.25;6.80;;;;;;;-2.33;100.00;98822.47;10371054;28;20046;-76
2022/03/03 01:09:43;;;;;;;7.55;6.63;;;;;;;-2.40;100.00;98817.53;10368491;28;20054;-76
2022/03/03 01:14:45;;;;;;;9.00;7.13;;;;;;;-2.42;100.00;98806.22;10371302;28;20041;-76
2022/03/03 01:19:50;;;;;;;8.88;7.20;;;;;;;-2.42;100.00;98800.94;10377838;28;20038;-77
2022/03/03 01:24:53;;;;;;;8.52;6.93;;;;;;;-2.48;100.00;98776.53;10374378;28;20060;-76
2022/03/03 01:29:56;;;;;;;8.35;6.72;;;;;;;-2.51;100.00;98779.31;10374573;28;20069;-77
2022/03/03 01:35:01;;;;;;;8.57;7.10;;;;;;;-2.60;100.00;98753.34;10374234;28;20034;-77
2022/03/03 01:40:06;;;;;;;10.15;6.90;;;;;;;-2.64;100.00;98762.31;10372015;28;20431;-76
2022/03/03 01:45:10;;;;;;;9.38;6.82;;;;;;;-2.75;100.00;98748.78;10385617;28;20125;-77
2022/03/03 01:50:14;;;;;;;8.63;7.20;;;;;;;-2.90;100.00;98751.19;10385400;28;20649;-77
2022/03/03 01:55:19;;;;;;;7.90;7.03;;;;;;;-2.96;100.00;98769.91;10381660;28;20044;-77
2022/03/03 02:00:22;;;;;;;8.68;6.80;;;;;;;-2.97;100.00;98758.50;10367963;28;20453;-77
2022/03/03 02:05:26;;;;;;;8.43;6.40;;;;;;;-2.97;100.00;98760.28;10374977;28;20091;-76
2022/03/03 02:10:29;;;;;;;7.88;6.70;;;;;;;-2.98;100.00;98748.03;10371880;28;20049;-77
2022/03/03 02:15:32;;;;;;;7.95;6.28;;;;;;;-3.00;100.00;98734.91;10371419;28;20052;-77
2022/03/03 02:20:36;;;;;;;8.02;6.75;;;;;;;-3.02;100.00;98733.28;10381100;28;20049;-77
2022/03/03 02:25:39;;;;;;;8.15;6.50;;;;;;;-3.07;100.00;98716.81;10377418;28;20052;-76
2022/03/03 02:30:48;;;;;;;9.10;7.05;;;;;;;-3.14;100.00;98714.44;10369587;28;20038;-76
2022/03/03 02:35:52;;;;;;;8.32;7.20;;;;;;;-3.20;100.00;98713.88;10373473;28;20050;-76
2022/03/03 02:40:55;;;;;;;8.80;7.50;;;;;;;-3.30;100.00;98709.00;10369756;28;20050;-76
2022/03/03 02:45:58;;;;;;;10.55;8.30;;;;;;;-3.31;100.00;98709.06;10369149;28;20129;-77
2022/03/03 02:51:03;;;;;;;10.43;8.43;;;;;;;-3.38;100.00;98692.66;10369985;28;20046;-76
2022/03/03 02:56:07;;;;;;;13.50;9.27;;;;;;;-3.48;100.00;98693.97;10368194;28;20550;-76
2022/03/03 03:01:10;;;;;;;9.60;8.60;;;;;;;-3.54;100.00;98689.84;10367014;28;20042;-76
2022/03/03 03:06:15;;;;;;;9.32;8.15;;;;;;;-3.56;100.00;98691.66;10369215;28;20053;-79
2022/03/03 03:11:18;;;;;;;9.18;7.30;;;;;;;-3.59;100.00;98683.94;10384212;28;20052;-76
2022/03/03 03:16:21;;;;;;;9.52;7.40;;;;;;;-3.61;100.00;98678.72;10391465;28;20049;-79
2022/03/03 03:21:25;;;;;;;8.30;7.25;;;;;;;-3.61;100.00;98675.22;10379637;28;20068;-75
2022/03/03 03:26:29;;;;;;;9.80;7.75;;;;;;;-3.62;100.00;98678.78;10371435;28;20046;-76
2022/03/03 03:31:32;;;;;;;7.85;6.78;;;;;;;-3.64;100.00;98688.53;10371790;28;20046;-76
2022/03/03 03:36:36;;;;;;;8.60;6.97;;;;;;;-3.70;100.00;98696.69;10381075;28;20048;-76
2022/03/03 03:41:39;;;;;;;7.93;7.13;;;;;;;-3.72;100.00;98686.22;10371841;28;20045;-77
2022/03/03 03:46:42;;;;;;;8.40;7.50;;;;;;;-3.77;100.00;98678.50;10376163;28;20038;-77
2022/03/03 03:51:47;;;;;;;10.20;7.13;;;;;;;-3.80;100.00;98680.41;10366042;28;20045;-75
2022/03/03 03:56:49;;;;;;;8.38;7.03;;;;;;;-3.81;100.00;98671.66;10384461;28;20064;-76
2022/03/03 04:01:53;;;;;;;8.93;6.60;;;;;;;-3.85;100.00;98679.75;10373677;28;20055;-75
2022/03/03 04:06:59;;;;;;;11.32;6.97;;;;;;;-3.88;100.00;98670.22;10375999;28;20057;-76
2022/03/03 04:12:03;;;;;;;7.95;6.60;;;;;;;-3.91;100.00;98671.19;10376490;28;20157;-77
2022/03/03 04:17:06;;;;;;;7.85;6.70;;;;;;;-3.90;100.00;98677.31;10384271;28;20037;-78
2022/03/03 04:22:10;;;;;;;8.65;7.30;;;;;;;-3.92;100.00;98655.44;10374958;28;20056;-75
2022/03/03 04:27:13;;;;;;;8.05;6.90;;;;;;;-3.93;100.00;98662.50;10376142;28;20046;-78
2022/03/03 04:32:16;;;;;;;9.57;7.45;;;;;;;-3.93;100.00;98653.75;10385549;28;20113;-78
2022/03/03 04:37:21;;;;;;;8.00;6.88;;;;;;;-3.97;100.00;98660.91;10387008;28;20045;-78
2022/03/03 04:42:24;;;;;;;8.90;7.35;;;;;;;-3.97;100.00;98652.19;10380537;28;20053;-80
2022/03/03 04:47:27;;;;;;;8.38;6.53;;;;;;;-3.97;100.00;98644.28;10387784;28;20041;-75
2022/03/03 04:52:34;;;;;;;7.55;6.75;;;;;;;-3.96;100.00;98648.63;10389760;28;20107;-76
2022/03/03 04:57:37;;;;;;;10.18;7.20;;;;;;;-3.95;100.00;98652.97;10380781;28;20080;-76
2022/03/03 05:02:40;;;;;;;8.38;7.13;;;;;;;-3.95;100.00;98652.97;10378438;28;20049;-75
2022/03/03 05:07:45;;;;;;;10.15;7.45;;;;;;;-3.96;100.00;98656.53;10390276;28;20058;-76
2022/03/03 05:12:48;;;;;;;7.97;6.78;;;;;;;-3.99;100.00;98654.00;10380762;28;20057;-77
2022/03/03 05:17:51;;;;;;;9.50;7.00;;;;;;;-4.04;100.00;98656.84;10381759;28;20045;-76
2022/03/03 05:22:55;;;;;;;9.82;7.43;;;;;;;-4.08;100.00;98653.47;10376420;28;20052;-77
2022/03/03 05:28:00;;;;;;;9.95;7.45;;;;;;;-4.16;100.00;98663.44;10392302;28;20129;-77
2022/03/03 05:33:03;;;;;;;9.65;7.95;;;;;;;-4.20;100.00;98654.00;10382466;28;20144;-76
2022/03/03 05:38:07;;;;;;;9.20;7.60;;;;;;;-4.25;100.00;98655.94;10378582;28;20057;-77
2022/03/03 05:43:13;;;;;;;10.38;7.80;;;;;;;-4.32;100.00;98657.13;10379997;28;20053;-76
2022/03/03 05:48:17;;;;;;;9.73;7.80;;;;;;;-4.37;100.00;98660.78;10397550;28;20070;-75
2022/03/03 05:53:22;;;;;;;9.93;8.35;;;;;;;-4.44;100.00;98672.47;10378084;28;20042;-75
2022/03/03 05:58:30;;;;;;;9.90;7.95;;;;;;;-4.47;100.00;98674.38;10368416;28;20045;-76
2022/03/03 06:03:34;;;;;;;9.25;7.45;;;;;;;-4.51;100.00;98676.25;10380513;28;20350;-76
2022/03/03 06:08:42;;;;;;;11.07;8.60;;;;;;;-4.55;100.00;98677.28;10369935;28;20042;-77
2022/03/03 06:13:47;;;;;;;9.70;8.27;;;;;;;-4.55;100.00;98674.66;10377709;28;20046;-77
2022/03/03 06:18:51;;;;;;;10.65;8.30;;;;;;;-4.58;100.00;98680.03;10386541;28;20038;-78
2022/03/03 06:23:55;;;;;;;9.15;8.00;;;;;;;-4.60;100.00;98682.75;10388444;28;20686;-78
2022/03/03 06:28:58;;;;;;;9.13;8.00;;;;;;;-4.60;100.00;98684.50;10388275;28;20473;-78
2022/03/03 06:34:01;;;;;;;10.15;8.23;;;;;;;-4.59;100.00;98687.09;10391719;28;20458;-78
2022/03/03 06:39:06;;;;;;;9.90;8.32;;;;;;;-4.57;100.00;98679.13;10379993;28;20486;-77
2022/03/03 06:44:09;;;;;;;10.98;8.77;;;;;;;-4.53;100.00;98680.72;10377037;28;20424;-77
2022/03/03 06:49:13;;;;;;;10.77;8.70;;;;;;;-4.51;100.00;98676.25;10387207;28;20121;-77
2022/03/03 06:54:20;;;;;;;10.02;8.50;;;;;;;-4.49;100.00;98670.03;10378168;28;20057;-77
2022/03/03 06:59:25;;;;;;;11.48;8.77;;;;;;;-4.47;100.00;98664.69;10380306;28;20083;-77
2022/03/03 07:04:29;;;;;;;9.68;8.68;;;;;;;-4.43;100.00;98671.56;10375023;28;20049;-77
2022/03/03 07:09:35;;;;;;;10.75;8.75;;;;;;;-4.36;100.00;98673.00;10380195;28;20185;-77
2022/03/03 07:14:38;;;;;;;10.43;9.02;;;;;;;-4.28;100.00;98682.34;10377240;28;20043;-77
2022/03/03 07:19:50;;;;;;;9.85;8.85;;;;;;;-4.22;100.00;98672.44;10379252;28;20049;-77
2022/03/03 07:25:01;;;;;;;10.95;8.32;;;;;;;-4.11;100.00;98684.31;10371487;28;20054;-78
2022/03/03 07:30:08;;;;;;;10.60;8.35;;;;;;;-3.98;100.00;98693.41;10381092;28;20045;-78
2022/03/03 07:35:14;;;;;;;8.63;7.72;;;;;;;-3.85;100.00;98696.41;10381025;28;20088;-78
2022/03/03 07:40:20;;;;;;;8.63;7.68;;;;;;;-3.67;100.00;98691.28;10376206;28;20042;-77
2022/03/03 07:45:31;;;;;;;10.68;9.38;;;;;;;-3.52;100.00;98681.84;10394373;28;20084;-77
2022/03/03 07:50:39;;;;;;;10.68;9.52;;;;;;;-3.42;100.00;98686.66;10396960;28;20124;-78
2022/03/03 07:55:45;;;;;;;11.95;9.38;;;;;;;-3.32;100.00;98679.22;10390295;28;20057;-77
2022/03/03 08:00:50;;;;;;;11.75;9.82;;;;;;;-3.20;100.00;98687.50;10387202;28;20049;-76
2022/03/03 08:05:56;;;;;;;11.35;9.73;;;;;;;-3.04;100.00;98671.88;10391612;28;20053;-78
2022/03/03 08:11:04;;;;;;;10.02;8.77;;;;;;;-2.95;100.00;98671.44;10386204;28;20091;-79
2022/03/03 08:16:07;;;;;;;11.23;8.70;;;;;;;-2.83;100.00;98686.69;10417332;28;20036;-79
2022/03/03 08:21:11;;;;;;;11.65;9.90;;;;;;;-2.65;100.00;98673.59;10384554;28;20045;-78
2022/03/03 08:26:18;;;;;;;11.82;10.05;;;;;;;-2.49;100.00;98686.91;10393737;28;20050;-78
2022/03/03 08:31:33;;;;;;;14.75;9.80;;;;;;;-2.30;100.00;98667.56;10393756;28;20050;-78
2022/03/03 08:36:45;;;;;;;10.90;9.48;;;;;;;-2.15;100.00;98673.88;10385594;28;20409;-79
2022/03/03 08:41:55;;;;;;;13.55;9.57;;;;;;;-1.95;100.00;98668.47;10372454;28;20050;-78
2022/03/03 08:47:21;;;;;;;11.82;9.57;;;;;;;-1.80;100.00;98668.63;10378638;28;20057;-78
2022/03/03 08:52:24;;;;;;;13.77;9.13;;;;;;;-1.63;100.00;98668.63;10381218;28;20056;-78
2022/03/03 08:57:28;;;;;;;10.13;9.13;;;;;;;-1.40;100.00;98667.44;10376186;28;20097;-79
2022/03/03 09:02:33;;;;;;;10.48;8.70;;;;;;;-1.20;100.00;98657.63;10375099;28;20054;-78
2022/03/03 09:07:36;;;;;;;9.70;8.65;;;;;;;-0.91;100.00;98651.72;10385621;28;20064;-77
2022/03/03 09:12:41;;;;;;;11.18;8.45;;;;;;;-0.67;100.00;98652.13;10375031;28;21187;-78
2022/03/03 09:17:45;;;;;;;9.43;8.23;;;;;;;-0.45;100.00;98635.94;10390565;28;20144;-79
2022/03/03 09:22:48;;;;;;;10.98;8.65;;;;;;;-0.18;100.00;98643.25;10391535;28;20048;-79
2022/03/03 09:27:52;;;;;;;9.57;8.30;;;;;;;0.03;100.00;98646.44;10386878;28;20037;-79
2022/03/03 09:32:55;;;;;;;9.95;8.48;;;;;;;0.27;100.00;98638.88;10398471;28;20147;-78
2022/03/03 09:37:59;;;;;;;12.45;8.65;;;;;;;0.45;100.00;98636.03;10391076;28;20049;-79
2022/03/03 09:43:06;;;;;;;10.73;8.15;;;;;;;0.64;100.00;98632.31;10388853;28;20056;-79
2022/03/03 09:48:09;;;;;;;10.32;8.73;;;;;;;0.88;100.00;98637.88;10385336;28;20133;-79
2022/03/03 09:53:15;;;;;;;9.40;8.13;;;;;;;1.17;100.00;98633.41;10383729;28;20398;-79
2022/03/03 09:58:19;;;;;;;12.55;8.40;;;;;;;1.44;100.00;98635.28;10386984;28;20064;-81
2022/03/03 10:03:22;;;;;;;10.07;8.13;;;;;;;1.64;100.00;98631.34;10383911;28;20052;-79
2022/03/03 10:08:27;;;;;;;9.73;7.93;;;;;;;1.96;100.00;98633.69;10388359;28;20745;-81
2022/03/03 10:13:45;;;;;;;11.77;8.50;;;;;;;2.19;100.00;98635.75;10395387;28;20046;-80
2022/03/03 10:18:53;;;;;;;9.50;7.65;;;;;;;2.47;100.00;98635.59;10386598;28;20494;-80
2022/03/03 10:23:57;;;;;;;10.38;7.68;;;;;;;2.70;100.00;98637.66;10386123;28;20532;-79
2022/03/03 10:29:02;;;;;;;8.48;7.53;;;;;;;2.92;100.00;98634.31;10386963;28;20125;-80
2022/03/03 10:34:15;;;;;;;8.85;7.22;;;;;;;3.06;100.00;98628.00;10384774;28;20042;-79
2022/03/03 10:39:18;;;;;;;9.82;7.40;;;;;;;3.22;97.70;98625.97;10389438;28;20056;-79
2022/03/03 10:44:28;;;;;;;8.30;7.32;;;;;;;3.37;91.00;98621.34;10388176;28;20064;-78
2022/03/03 10:49:31;;;;;;;9.65;7.57;;;;;;;3.52;92.94;98631.88;10377788;28;20120;-79
2022/03/03 10:54:34;;;;;;;9.77;7.60;;;;;;;3.56;85.19;98636.03;10392270;28;20125;-78
2022/03/03 10:59:45;;;;;;;9.35;7.80;;;;;;;3.72;92.39;98624.22;10416928;28;20014;-79
2022/03/03 11:04:48;;;;;;;11.02;8.10;;;;;;;3.81;91.42;98631.56;10413817;28;20047;-77
2022/03/03 11:09:52;;;;;;;9.57;8.40;;;;;;;3.90;91.30;98622.00;10396315;28;20047;-78
2022/03/03 11:14:57;;;;;;;11.85;8.30;;;;;;;3.88;90.33;98608.81;10379413;28;20052;-79
2022/03/03 11:20:00;;;;;;;9.55;8.55;;;;;;;3.89;86.80;98602.53;10372630;28;20048;-78
2022/03/03 11:25:08;;;;;;;9.43;7.80;;;;;;;4.11;92.49;98600.91;10374492;28;20050;-78
2022/03/03 11:30:27;;;;;;;10.57;8.65;;;;;;;4.18;81.39;98595.97;10372866;28;20058;-78
2022/03/03 11:35:46;;;;;;;10.68;8.25;;;;;;;4.20;81.05;98597.53;10379312;28;20516;-79
2022/03/03 11:40:55;;;;;;;10.63;8.93;;;;;;;4.29;85.51;98591.50;10376128;28;20584;-77
2022/03/03 11:46:00;;;;;;;10.55;7.78;;;;;;;4.42;80.50;98585.22;10372147;28;20049;-77
2022/03/03 11:51:32;;;;;;;10.07;7.80;;;;;;;4.51;70.27;98592.53;10372660;28;20117;-79
2022/03/03 11:57:23;;;;;;;10.77;8.52;;;;;;;4.57;62.42;98586.72;10371563;28;20050;-76
2022/03/03 12:02:32;;;;;;;9.60;7.80;;;;;;;4.69;62.47;98579.59;10370169;28;20454;-78
2022/03/03 12:07:35;;;;;;;10.07;8.20;;;;;;;4.84;66.09;98572.19;10374114;28;20176;-78
2022/03/03 12:12:38;;;;;;;10.55;8.13;;;;;;;4.83;63.73;98570.47;10374801;28;20408;-74
2022/03/03 12:17:45;;;;;;;10.80;8.05;;;;;;;4.99;65.13;98569.28;10396264;28;20076;-78
2022/03/03 12:23:04;;;;;;;8.98;7.53;;;;;;;5.03;64.15;98571.59;10381388;28;20042;-78
2022/03/03 12:28:18;;;;;;;9.63;7.63;;;;;;;5.01;62.22;98560.16;10379632;28;20104;-78
2022/03/03 12:33:24;;;;;;;10.07;7.85;;;;;;;5.27;65.51;98561.69;10375802;28;20069;-77
2022/03/03 12:38:28;;;;;;;9.52;7.70;;;;;;;5.32;66.71;98559.53;10375558;28;20049;-78
2022/03/03 12:43:37;;;;;;;9.32;8.23;;;;;;;5.58;66.30;98565.41;10377071;28;20053;-78
2022/03/03 12:48:45;;;;;;;10.45;7.30;;;;;;;5.83;65.51;98563.38;10376102;28;20104;-79
2022/03/03 12:53:50;;;;;;;8.68;7.43;;;;;;;5.83;67.64;98558.88;10387675;28;20046;-79
2022/03/03 12:58:54;;;;;;;8.35;7.40;;;;;;;5.99;69.30;98558.50;10385130;28;20485;-81
2022/03/03 13:04:03;;;;;;;9.48;7.95;;;;;;;6.27;69.62;98544.59;10379649;28;20340;-77
2022/03/03 13:09:08;;;;;;;11.45;8.10;;;;;;;6.44;70.51;98543.16;10379438;28;20042;-78
2022/03/03 13:14:12;;;;;;;8.45;7.53;;;;;;;6.31;65.22;98537.97;10378342;28;20090;-80
2022/03/03 13:19:16;;;;;;;9.13;7.55;;;;;;;6.30;67.94;98539.81;10380729;28;20529;-77
2022/03/03 13:24:25;;;;;;;8.88;7.90;;;;;;;6.57;68.84;98538.44;10382262;28;20493;-80
2022/03/03 13:29:30;;;;;;;8.13;7.20;;;;;;;6.37;63.28;98536.59;10379041;28;20114;-79
2022/03/03 13:34:36;;;;;;;9.43;6.90;;;;;;;6.78;62.58;98529.50;10381605;28;20045;-78
2022/03/03 13:39:39;;;;;;;8.00;7.18;;;;;;;7.13;62.71;98519.31;10387187;28;20042;-78
2022/03/03 13:44:58;;;;;;;6.97;5.80;;;;;;;7.36;56.10;98530.66;10386082;28;20057;-79
2022/03/03 13:50:03;;;;;;;7.55;5.95;;;;;;;7.48;58.56;98521.53;10391112;28;20072;-78
2022/03/03 13:55:13;;;;;;;8.32;6.43;;;;;;;7.77;59.12;98515.31;10390364;28;20099;-78
2022/03/03 14:00:22;;;;;;;6.60;5.43;;;;;;;7.55;56.84;98522.66;10394821;28;20069;-79
2022/03/03 14:05:42;;;;;;;6.43;5.50;;;;;;;7.91;56.73;98515.88;10422058;28;20046;-79
2022/03/03 14:10:49;;;;;;;8.05;5.82;;;;;;;8.24;57.43;98517.28;10385356;28;20049;-79
2022/03/03 14:15:54;;;;;;;6.45;5.13;;;;;;;8.33;55.03;98515.56;10379220;28;20744;-79
2022/03/03 14:20:59;;;;;;;7.03;5.70;;;;;;;8.06;54.99;98517.16;10382455;28;20061;-79
2022/03/03 14:26:04;;;;;;;7.72;6.10;;;;;;;8.56;55.40;98508.03;10385742;28;20052;-79
2022/03/03 14:31:57;;;;;;;8.70;6.03;;;;;;;8.33;53.89;98511.03;10386362;28;20052;-79
2022/03/03 14:37:21;;;;;;;7.43;6.15;;;;;;;8.55;54.53;98494.75;10391320;28;20622;-79
2022/03/03 14:42:30;;;;;;;6.53;5.82;;;;;;;8.70;56.65;98495.13;10383417;28;20050;-76
2022/03/03 14:47:34;;;;;;;7.70;5.60;;;;;;;8.77;54.93;98499.75;10382954;28;20050;-79
2022/03/03 14:52:39;;;;;;;6.32;5.72;;;;;;;8.63;55.54;98497.56;10385405;28;20140;-79
2022/03/03 14:57:42;;;;;;;8.93;6.10;;;;;;;8.97;55.96;98498.84;10390749;28;20399;-79
2022/03/03 15:02:45;;;;;;;9.68;5.20;;;;;;;8.64;55.77;98489.34;10394616;28;20072;-77
2022/03/03 15:07:50;;;;;;;6.68;5.47;;;;;;;8.73;53.34;98492.16;10393743;28;20046;-77
2022/03/03 15:12:54;;;;;;;6.32;4.80;;;;;;;8.86;53.90;98487.28;10381355;28;20073;-78
2022/03/03 15:17:57;;;;;;;5.95;4.60;;;;;;;8.83;53.33;98494.78;10383210;28;20274;-79
2022/03/03 15:23:01;;;;;;;5.95;5.35;;;;;;;8.89;54.44;98480.75;10379614;28;20137;-79
2022/03/03 15:28:05;;;;;;;7.13;5.00;;;;;;;8.57;53.78;98480.19;10385753;28;20038;-79
2022/03/03 15:36:44;;;;;;;5.47;4.90;;;;;;;8.63;52.93;98479.63;10379068;28;20056;-79
2022/03/03 15:38:32;;;;;;;9.50;5.40;;;;;;;8.48;53.61;98495.31;10381884;28;20046;-77
2022/03/03 15:43:35;;;;;;;8.00;5.68;;;;;;;8.48;53.86;98497.19;10380545;28;20140;-80
2022/03/03 15:48:38;;;;;;;6.78;5.93;;;;;;;8.33;56.18;98502.97;10389343;28;20085;-80
2022/03/03 15:53:43;;;;;;;8.60;5.80;;;;;;;8.30;54.54;98497.06;10384952;28;20060;-80
2022/03/03 15:58:46;;;;;;;6.20;5.40;;;;;;;8.08;53.93;98495.53;10387080;28;20064;-77
2022/03/03 16:03:49;;;;;;;6.45;5.47;;;;;;;7.90;55.13;98503.47;10382848;28;20045;-79
2022/03/03 16:08:53;;;;;;;6.65;5.50;;;;;;;7.69;56.35;98497.28;10388796;28;20052;-79
2022/03/03 16:13:56;;;;;;;6.68;5.63;;;;;;;7.37;56.61;98501.03;10395503;28;20133;-80
2022/03/03 16:18:59;;;;;;;7.03;5.80;;;;;;;7.24;58.93;98503.13;10391614;28;20057;-79
2022/03/03 16:24:06;;;;;;;7.32;5.90;;;;;;;7.07;59.30;98505.50;10388430;28;20076;-79
2022/03/03 16:29:29;;;;;;;7.95;6.38;;;;;;;6.85;60.46;98509.22;10375546;28;20053;-79
2022/03/03 16:34:33;;;;;;;7.50;6.50;;;;;;;6.67;63.36;98519.72;10378104;28;20045;-79
2022/03/03 16:39:38;;;;;;;8.32;6.80;;;;;;;6.43;65.92;98518.19;10375447;28;20117;-79
2022/03/03 16:44:45;;;;;;;8.50;7.63;;;;;;;6.26;67.26;98526.84;10377725;28;20056;-78
2022/03/03 16:49:49;;;;;;;10.38;7.85;;;;;;;6.09;69.91;98523.78;10371061;28;20066;-80
2022/03/03 16:54:54;;;;;;;8.63;7.70;;;;;;;5.77;72.63;98532.66;10381586;28;20121;-79
2022/03/03 16:59:57;;;;;;;9.25;7.60;;;;;;;5.50;75.41;98535.78;10367640;28;20052;-79
2022/03/03 17:05:00;;;;;;;8.82;7.90;;;;;;;5.15;78.84;98543.03;10379729;28;20098;-79
2022/03/03 17:10:08;;;;;;;10.85;8.68;;;;;;;4.89;84.03;98543.28;10394571;28;20084;-79
2022/03/03 17:15:14;;;;;;;10.15;9.07;;;;;;;4.69;89.19;98544.88;10409421;28;20073;-79
2022/03/03 17:20:18;;;;;;;11.43;9.75;;;;;;;4.32;100.00;98559.25;10378847;28;20042;-78
2022/03/03 17:25:38;;;;;;;13.48;10.73;;;;;;;3.87;100.00;98556.47;10378829;28;20045;-79
2022/03/03 17:30:40;;;;;;;12.38;10.35;;;;;;;3.51;100.00;98566.22;10374966;28;20635;-79
2022/03/03 17:35:43;;;;;;;11.90;10.02;;;;;;;3.22;100.00;98566.56;10378893;28;20458;-79
2022/03/03 17:40:49;;;;;;;12.13;10.38;;;;;;;2.96;100.00;98577.28;10386255;28;20034;-79
2022/03/03 17:45:53;;;;;;;11.95;10.32;;;;;;;2.74;100.00;98584.13;10380882;28;20077;-79
2022/03/03 17:50:56;;;;;;;11.82;10.45;;;;;;;2.55;100.00;98594.31;10374995;28;20042;-78
2022/03/03 17:56:00;;;;;;;12.35;10.93;;;;;;;2.40;100.00;98593.56;10382310;28;20788;-79
2022/03/03 18:01:04;;;;;;;12.48;10.23;;;;;;;2.17;100.00;98600.47;10380194;28;20506;-79
2022/03/03 18:06:07;;;;;;;11.68;10.05;;;;;;;1.98;100.00;98607.00;10377354;28;20053;-79
2022/03/03 18:11:12;;;;;;;12.18;9.43;;;;;;;1.81;100.00;98616.09;10383307;28;20038;-80
2022/03/03 18:16:15;;;;;;;10.82;9.68;;;;;;;1.65;100.00;98613.59;10380953;28;20468;-78
2022/03/03 18:21:18;;;;;;;12.85;9.98;;;;;;;1.45;100.00;98597.16;10388633;28;20520;-79
2022/03/03 18:26:23;;;;;;;14.35;9.82;;;;;;;1.37;100.00;98618.88;10393520;28;20042;-79
2022/03/03 18:31:26;;;;;;;12.32;9.70;;;;;;;1.23;100.00;98630.38;10397583;28;20034;-78
2022/03/03 18:36:29;;;;;;;12.60;10.77;;;;;;;1.03;100.00;98631.63;10396268;28;20574;-79
2022/03/03 18:41:35;;;;;;;12.98;10.48;;;;;;;0.90;100.00;98636.84;10408403;28;20041;-79
2022/03/03 18:46:38;;;;;;;14.00;11.15;;;;;;;0.73;100.00;98645.84;10383930;28;20096;-78
2022/03/03 18:51:41;;;;;;;14.32;11.30;;;;;;;0.54;100.00;98630.19;10385909;28;20120;-78
2022/03/03 18:56:46;;;;;;;14.52;11.13;;;;;;;0.40;100.00;98649.56;10384190;28;20045;-79
2022/03/03 19:01:49;;;;;;;17.08;12.00;;;;;;;0.23;100.00;98653.22;10388975;28;20391;-79
2022/03/03 19:06:52;;;;;;;15.90;12.38;;;;;;;0.07;100.00;98658.56;10381588;28;20068;-78
2022/03/03 19:11:56;;;;;;;17.17;13.40;;;;;;;-0.06;100.00;98670.81;10382075;28;20061;-78
2022/03/03 19:17:05;;;;;;;17.33;13.40;;;;;;;-0.17;100.00;98674.06;10376185;28;20049;-79
2022/03/03 19:22:08;;;;;;;17.90;13.63;;;;;;;-0.31;100.00;98674.84;10377255;28;20061;-78
2022/03/03 19:27:13;;;;;;;21.08;14.73;;;;;;;-0.39;100.00;98685.03;10373581;28;20073;-79
2022/03/03 19:37:37;;;;;;;22.88;15.52;;;;;;;-0.53;100.00;98686.66;10377859;28;20077;-79
2022/03/03 19:42:41;;;;;;;22.63;16.48;;;;;;;-0.61;100.00;98688.88;10379339;28;20148;-78
2022/03/03 19:47:45;;;;;;;24.45;17.40;;;;;;;-0.73;100.00;98700.13;10374511;28;20855;-78
2022/03/03 19:52:48;;;;;;;24.77;17.90;;;;;;;-0.85;100.00;98712.19;10387632;28;20052;-78
2022/03/03 19:57:59;;;;;;;25.50;18.05;;;;;;;-0.90;100.00;98709.81;10397187;28;20516;-78
2022/03/03 20:03:02;;;;;;;27.52;19.75;;;;;;;-0.97;100.00;98716.38;10411677;28;20045;-77
2022/03/03 20:08:06;;;;;;;27.27;19.27;;;;;;;-0.91;100.00;98726.59;10375179;28;20050;-78
2022/03/03 20:13:10;;;;;;;24.30;18.60;;;;;;;-0.95;100.00;98733.84;10379098;28;20406;-78
2022/03/03 20:18:15;;;;;;;29.00;20.30;;;;;;;-1.03;100.00;98746.63;10378304;28;20041;-79
2022/03/03 20:23:38;;;;;;;30.75;21.65;;;;;;;-1.06;100.00;98751.22;10380998;28;20054;-79
2022/03/03 20:28:42;;;;;;;34.15;20.73;;;;;;;-1.14;100.00;98748.97;10373842;28;20060;-78
2022/03/03 20:33:46;;;;;;;30.27;21.23;;;;;;;-1.14;100.00;98759.56;10380495;28;20692;-79
2022/03/03 20:38:52;;;;;;;36.60;24.08;;;;;;;-1.05;100.00;98772.28;10395227;28;20048;-78
2022/03/03 20:43:56;;;;;;;33.60;22.85;;;;;;;-1.09;100.00;98783.97;10373719;28;20108;-78
2022/03/03 20:49:01;;;;;;;36.95;24.40;;;;;;;-1.02;100.00;98792.44;10372667;28;20037;-77
2022/03/03 20:54:08;;;;;;;33.47;23.58;;;;;;;-0.99;100.00;98787.84;10380040;28;20051;-77
2022/03/03 20:59:12;;;;;;;34.10;23.15;;;;;;;-0.90;100.00;98790.97;10369241;28;20762;-77
2022/03/03 21:04:15;;;;;;;32.92;22.55;;;;;;;-0.87;100.00;98788.13;10370746;28;20044;-78
2022/03/03 21:09:19;;;;;;;34.63;23.55;;;;;;;-0.90;100.00;98791.78;10379034;28;20041;-80
2022/03/03 21:14:23;;;;;;;34.25;22.75;;;;;;;-0.84;100.00;98799.44;10390324;28;20041;-77
2022/03/03 21:19:26;;;;;;;34.85;23.83;;;;;;;-0.81;100.00;98799.25;10390084;28;20033;-76
2022/03/03 21:24:29;;;;;;;33.67;23.45;;;;;;;-0.75;100.00;98794.59;10394926;28;20096;-76
2022/03/03 21:29:34;;;;;;;38.70;25.77;;;;;;;-0.77;100.00;98799.97;10374104;28;20044;-76
2022/03/03 21:34:38;;;;;;;36.70;24.75;;;;;;;-0.78;100.00;98799.09;10376655;28;20053;-76
2022/03/03 21:39:41;;;;;;;39.45;25.90;;;;;;;-0.76;100.00;98800.81;10378591;28;20137;-75
2022/03/03 21:44:45;;;;;;;40.08;26.35;;;;;;;-0.80;100.00;98789.53;10387652;28;20057;-76
2022/03/03 21:49:49;;;;;;;42.83;27.63;;;;;;;-0.76;100.00;98798.16;10397692;28;20313;-75
2022/03/03 21:54:52;;;;;;;49.30;29.58;;;;;;;-0.83;100.00;98801.16;10399301;28;20429;-76
2022/03/03 21:59:57;;;;;;;54.42;35.22;;;;;;;-0.87;100.00;98817.22;10404754;28;20045;-75
2022/03/03 22:05:01;;;;;;;50.40;31.73;;;;;;;-0.98;100.00;98812.50;10390400;28;20045;-76
2022/03/03 22:10:06;;;;;;;47.47;30.98;;;;;;;-0.96;100.00;98805.34;10398170;28;20065;-76
2022/03/03 22:15:14;;;;;;;46.15;29.90;;;;;;;-0.93;100.00;98811.34;10394640;28;20045;-76
2022/03/03 22:20:19;;;;;;;52.72;31.90;;;;;;;-0.90;100.00;98814.75;10395130;28;20471;-76
2022/03/03 22:25:22;;;;;;;56.78;34.25;;;;;;;-0.97;100.00;98815.06;10393698;28;20584;-76
2022/03/03 22:30:27;;;;;;;52.28;32.75;;;;;;;-0.93;100.00;98811.34;10394380;28;20052;-76
2022/03/03 22:35:30;;;;;;;52.97;33.03;;;;;;;-0.92;100.00;98814.81;10398546;28;20037;-75
2022/03/03 22:40:36;;;;;;;58.35;36.35;;;;;;;-0.96;100.00;98814.13;10396581;28;20083;-74
2022/03/03 22:45:40;;;;;;;69.57;39.58;;;;;;;-0.98;100.00;98816.00;10396084;28;20124;-74
2022/03/03 22:56:05;;;;;;;64.65;37.40;;;;;;;-0.96;100.00;98810.66;10394752;28;20432;-76
2022/03/03 23:01:18;;;;;;;50.92;32.38;;;;;;;-1.01;100.00;98807.38;10391749;28;20042;-76
2022/03/03 23:06:22;;;;;;;53.50;33.25;;;;;;;-0.97;100.00;98823.00;10391265;28;20034;-74
2022/03/03 23:11:27;;;;;;;47.60;31.05;;;;;;;-0.98;100.00;98812.50;10392447;28;20048;-74
2022/03/03 23:16:32;;;;;;;46.97;31.23;;;;;;;-0.97;100.00;98817.72;10396781;28;20449;-75
2022/03/03 23:21:36;;;;;;;53.08;32.85;;;;;;;-1.00;100.00;98817.84;10394026;28;20116;-76
2022/03/03 23:26:39;;;;;;;47.50;29.88;;;;;;;-1.03;100.00;98822.44;10392243;28;20064;-76
2022/03/03 23:31:45;;;;;;;51.20;32.50;;;;;;;-1.07;100.00;98828.84;10396105;28;20045;-76
2022/03/03 23:36:49;;;;;;;59.50;34.60;;;;;;;-1.05;100.00;98821.66;10386928;28;20433;-76